createdAt,value
2023-06-24T00:02:45.282Z,57.92
2023-06-24T00:13:13.757Z,58.05
2023-06-24T00:23:42.347Z,58.05
2023-06-24T00:34:09.968Z,58.08
2023-06-24T00:44:38.951Z,58.15
2023-06-24T00:55:08.118Z,58.15
2023-06-24T01:05:37.305Z,58.10
2023-06-24T01:16:19.874Z,58.07
2023-06-24T01:27:26.997Z,58.13
2023-06-24T01:37:57.377Z,58.19
2023-06-24T01:48:27.863Z,58.23
2023-06-24T01:58:58.993Z,58.30
2023-06-24T02:09:29.695Z,58.38
2023-06-24T02:19:58.837Z,58.32
2023-06-24T02:30:27.574Z,58.50
2023-06-24T02:40:56.025Z,58.89
2023-06-24T02:51:24.296Z,59.01
2023-06-24T03:01:52.485Z,59.12
2023-06-24T03:12:20.396Z,59.50
2023-06-24T03:22:48.409Z,59.81
2023-06-24T03:33:18.233Z,60.05
2023-06-24T03:43:46.242Z,60.23
2023-06-24T03:54:13.865Z,60.77
2023-06-24T04:04:42.109Z,61.02
2023-06-24T04:15:11.242Z,61.41
2023-06-24T04:25:38.903Z,61.75
2023-06-24T04:36:07.078Z,62.22
2023-06-24T04:46:36.132Z,62.88
2023-06-24T04:57:03.853Z,63.17
2023-06-24T05:07:31.648Z,63.68
2023-06-24T05:17:59.905Z,64.39
2023-06-24T05:28:27.594Z,64.98
2023-06-24T05:38:55.156Z,65.01
2023-06-24T05:49:22.826Z,64.86
2023-06-24T05:59:50.894Z,64.36
2023-06-24T06:10:19.085Z,64.74
2023-06-24T06:20:46.847Z,64.43
2023-06-24T06:31:14.777Z,64.37
2023-06-24T06:41:42.340Z,64.60
2023-06-24T06:52:10.764Z,64.32
2023-06-24T07:02:38.332Z,63.94
2023-06-24T07:13:06.056Z,63.97
2023-06-24T07:23:33.705Z,63.82
2023-06-24T07:34:01.288Z,63.53
2023-06-24T07:44:28.951Z,63.00
2023-06-24T07:54:56.442Z,62.90
2023-06-24T08:05:24.102Z,62.65
2023-06-24T08:15:51.773Z,62.27
2023-06-24T08:26:19.384Z,62.34
2023-06-24T08:36:47.253Z,62.28
2023-06-24T08:47:17.688Z,62.26
2023-06-24T08:57:45.493Z,62.04
2023-06-24T09:08:13.154Z,61.98
2023-06-24T09:18:40.950Z,61.66
2023-06-24T09:29:09.672Z,62.06
2023-06-24T09:39:43.170Z,61.62
2023-06-24T09:50:11.918Z,61.34
2023-06-24T10:00:40.035Z,61.32
2023-06-24T10:11:07.715Z,61.66
2023-06-24T10:21:52.109Z,61.44
2023-06-24T10:32:20.495Z,61.24
2023-06-24T10:42:49.718Z,61.01
2023-06-24T10:53:19.665Z,60.77
2023-06-24T11:03:47.300Z,60.58
2023-06-24T11:14:14.821Z,60.39
2023-06-24T11:24:42.854Z,60.05
2023-06-24T11:35:13.434Z,60.01
2023-06-24T11:45:40.948Z,60.03
2023-06-24T11:56:09.403Z,60.11
2023-06-24T12:06:36.948Z,60.33
2023-06-24T12:17:05.897Z,60.37
2023-06-24T12:27:33.601Z,60.75
2023-06-24T12:38:01.164Z,60.51
2023-06-24T12:48:28.972Z,60.22
2023-06-24T12:58:56.431Z,60.15
2023-06-24T13:09:24.389Z,59.57
2023-06-24T13:19:52.971Z,59.43
2023-06-24T13:30:21.383Z,59.38
2023-06-24T13:40:49.984Z,59.15
2023-06-24T13:51:17.660Z,58.90
2023-06-24T14:01:46.264Z,58.90
2023-06-24T14:12:15.230Z,58.27
2023-06-24T14:22:44.073Z,57.68
2023-06-24T14:33:12.099Z,57.62
2023-06-24T14:43:40.489Z,57.34
2023-06-24T14:54:08.175Z,56.96
2023-06-24T15:04:37.848Z,56.53
2023-06-24T15:15:06.854Z,56.18
2023-06-24T15:25:36.340Z,55.68
2023-06-24T15:36:04.819Z,56.21
2023-06-24T15:46:32.872Z,57.02
2023-06-24T15:57:01.071Z,57.36
2023-06-24T16:07:29.239Z,57.54
2023-06-24T16:17:57.519Z,57.30
2023-06-24T16:28:25.774Z,57.00
2023-06-24T16:38:54.091Z,57.19
2023-06-24T16:49:22.222Z,57.05
2023-06-24T16:59:50.505Z,57.43
2023-06-24T17:10:18.290Z,57.70
2023-06-24T17:20:45.916Z,57.85
2023-06-24T17:31:14.276Z,57.88
2023-06-24T17:41:42.671Z,58.53
2023-06-24T17:52:19.150Z,58.97
2023-06-24T18:02:47.644Z,59.00
2023-06-24T18:13:16.253Z,59.05
2023-06-24T18:23:45.716Z,59.39
2023-06-24T18:34:14.153Z,59.61
2023-06-24T18:44:41.888Z,59.73
2023-06-24T18:55:10.806Z,59.89
2023-06-24T19:05:38.338Z,59.69
2023-06-24T19:16:06.869Z,59.88
2023-06-24T19:26:36.058Z,59.83
2023-06-24T19:37:04.171Z,60.36
2023-06-24T19:47:32.645Z,60.58
2023-06-24T19:58:00.843Z,60.80
2023-06-24T20:08:28.961Z,61.07
2023-06-24T20:18:57.183Z,60.99
2023-06-24T20:29:25.397Z,61.26
2023-06-24T20:39:53.566Z,61.10
2023-06-24T20:50:22.292Z,61.40
2023-06-24T21:00:50.789Z,61.60
2023-06-24T21:11:19.758Z,61.79
2023-06-24T21:21:47.708Z,61.70
2023-06-24T21:32:16.028Z,61.99
2023-06-24T21:42:44.128Z,61.85
2023-06-24T21:53:12.837Z,61.77
2023-06-24T22:03:41.117Z,61.97
2023-06-24T22:14:09.516Z,62.16
2023-06-24T22:24:37.697Z,62.32
2023-06-24T22:35:07.144Z,62.12
2023-06-24T22:45:34.569Z,61.82
2023-06-24T22:56:02.840Z,62.04
2023-06-24T23:06:32.388Z,61.99
2023-06-24T23:17:00.796Z,62.08
2023-06-24T23:27:37.159Z,61.96
2023-06-24T23:38:05.943Z,61.44
2023-06-24T23:48:33.647Z,61.54
2023-06-24T23:59:02.597Z,61.71
